Time,TemperatureF,DewpointF,PressureIn,WindDirection,WindDirectionDegrees,WindSpeedMPH,WindSpeedGustMPH,Humidity,HourlyPrecipIn,Conditions,Clouds,dailyrainin,SoftwareType,DateUTC
2013-04-03 00:00:00,42.5,26.1,30.23,NNW,330,1.0,3.0,52,0.00,,,0.00,Wunderground v.1.15,2013-04-03 04:00:00,
2013-04-03 00:06:00,42.5,26.1,30.23,NNW,340,1.0,5.0,52,0.00,,,0.00,Wunderground v.1.15,2013-04-03 04:06:00,
2013-04-03 00:09:00,42.5,26.1,30.23,NNW,340,1.0,5.0,52,0.00,,,0.00,Wunderground v.1.15,2013-04-03 04:09:00,
2013-04-03 00:14:00,42.3,26.4,30.23,NNW,340,0.0,3.0,53,0.00,,,0.00,Wunderground v.1.15,2013-04-03 04:14:00,
2013-04-03 00:20:00,42.2,26.7,30.23,NNW,331,5.0,5.0,54,0.00,,,0.00,Wunderground v.1.15,2013-04-03 04:20:00,
2013-04-03 00:25:00,42.2,26.7,30.23,NNW,330,5.0,6.0,54,0.00,,,0.00,Wunderground v.1.15,2013-04-03 04:25:00,
2013-04-03 00:30:00,42.1,26.6,30.22,NNW,330,3.0,3.0,54,0.00,,,0.00,Wunderground v.1.15,2013-04-03 04:30:00,
2013-04-03 00:37:00,41.9,26.0,30.22,NNW,328,2.0,6.0,53,0.00,,,0.00,Wunderground v.1.15,2013-04-03 04:37:00,
2013-04-03 00:42:00,41.9,26.4,30.22,NW,320,1.0,4.0,54,0.00,,,0.00,Wunderground v.1.15,2013-04-03 04:42:00,
2013-04-03 00:47:00,41.9,25.5,30.22,NW,319,6.0,6.0,52,0.00,,,0.00,Wunderground v.1.15,2013-04-03 04:47:00,
2013-04-03 00:53:00,41.9,25.5,30.22,NW,319,1.0,5.0,52,0.00,,,0.00,Wunderground v.1.15,2013-04-03 04:53:00,
2013-04-03 00:58:00,41.8,25.4,30.22,NW,317,5.0,5.0,52,0.00,,,0.00,Wunderground v.1.15,2013-04-03 04:58:00,
2013-04-03 01:03:00,41.8,25.0,30.22,NW,315,2.0,4.0,51,0.00,,,0.00,Wunderground v.1.15,2013-04-03 05:03:00,
2013-04-03 01:09:00,41.8,25.0,30.22,NW,314,4.0,5.0,51,0.00,,,0.00,Wunderground v.1.15,2013-04-03 05:09:00,
2013-04-03 01:14:00,41.8,24.5,30.23,NW,313,4.0,10.0,50,0.00,,,0.00,Wunderground v.1.15,2013-04-03 05:14:00,
2013-04-03 01:19:00,41.8,24.5,30.23,NW,316,3.0,10.0,50,0.00,,,0.00,Wunderground v.1.15,2013-04-03 05:19:00,
2013-04-03 01:25:00,41.6,24.3,30.23,NW,322,4.0,4.0,50,0.00,,,0.00,Wunderground v.1.15,2013-04-03 05:25:00,
2013-04-03 01:30:00,41.6,24.3,30.22,NW,322,5.0,5.0,50,0.00,,,0.00,Wunderground v.1.15,2013-04-03 05:30:00,
2013-04-03 01:35:00,41.6,24.3,30.22,NW,322,6.0,6.0,50,0.00,,,0.00,Wunderground v.1.15,2013-04-03 05:35:00,
2013-04-03 01:40:00,41.6,24.3,30.22,NW,322,3.0,6.0,50,0.00,,,0.00,Wunderground v.1.15,2013-04-03 05:40:00,
2013-04-03 01:45:00,41.6,23.8,30.22,NW,322,1.0,3.0,49,0.00,,,0.00,Wunderground v.1.15,2013-04-03 05:45:00,
2013-04-03 01:52:00,41.5,23.7,30.22,NW,322,0.0,3.0,49,0.00,,,0.00,Wunderground v.1.15,2013-04-03 05:52:00,
2013-04-03 01:58:00,41.5,23.2,30.22,NW,322,4.0,5.0,48,0.00,,,0.00,Wunderground v.1.15,2013-04-03 05:58:00,
2013-04-03 02:03:00,41.3,24.0,30.22,NW,322,1.0,3.0,50,0.00,,,0.00,Wunderground v.1.15,2013-04-03 06:03:00,
2013-04-03 02:08:00,41.2,23.9,30.22,NW,322,0.0,4.0,50,0.00,,,0.00,Wunderground v.1.15,2013-04-03 06:08:00,
2013-04-03 02:13:00,41.2,23.5,30.22,NNW,333,3.0,6.0,49,0.00,,,0.00,Wunderground v.1.15,2013-04-03 06:13:00,
2013-04-03 02:18:00,41.1,23.4,30.21,NW,321,3.0,6.0,49,0.00,,,0.00,Wunderground v.1.15,2013-04-03 06:18:00,
2013-04-03 02:23:00,41.1,23.4,30.21,NW,321,0.0,2.0,49,0.00,,,0.00,Wunderground v.1.15,2013-04-03 06:23:00,
2013-04-03 02:28:00,40.9,23.2,30.20,NW,324,0.0,3.0,49,0.00,,,0.00,Wunderground v.1.15,2013-04-03 06:28:00,
2013-04-03 02:33:00,40.8,23.1,30.20,NW,324,4.0,4.0,49,0.00,,,0.00,Wunderground v.1.15,2013-04-03 06:33:00,
2013-04-03 02:38:00,40.6,23.4,30.20,NW,325,2.0,5.0,50,0.00,,,0.00,Wunderground v.1.15,2013-04-03 06:38:00,
2013-04-03 02:43:00,40.5,23.3,30.21,NW,324,0.0,2.0,50,0.00,,,0.00,Wunderground v.1.15,2013-04-03 06:43:00,
2013-04-03 02:49:00,40.3,23.1,30.21,NW,325,2.0,5.0,50,0.00,,,0.00,Wunderground v.1.15,2013-04-03 06:49:00,
2013-04-03 02:54:00,40.2,22.5,30.21,NW,325,1.0,5.0,49,0.00,,,0.00,Wunderground v.1.15,2013-04-03 06:54:00,
2013-04-03 02:59:00,39.9,22.7,30.21,NW,325,0.0,5.0,50,0.00,,,0.00,Wunderground v.1.15,2013-04-03 06:59:00,
2013-04-03 03:04:00,39.8,22.2,30.21,NW,325,0.0,5.0,49,0.00,,,0.00,Wunderground v.1.15,2013-04-03 07:04:00,
2013-04-03 03:09:00,39.8,22.7,30.21,NW,325,0.0,5.0,50,0.00,,,0.00,Wunderground v.1.15,2013-04-03 07:09:00,
2013-04-03 03:14:00,39.8,21.2,30.21,NW,326,1.0,4.0,47,0.00,,,0.00,Wunderground v.1.15,2013-04-03 07:14:00,
2013-04-03 03:19:00,39.8,21.2,30.21,NW,326,2.0,5.0,47,0.00,,,0.00,Wunderground v.1.15,2013-04-03 07:19:00,
2013-04-03 03:24:00,39.8,21.7,30.21,NW,326,0.0,3.0,48,0.00,,,0.00,Wunderground v.1.15,2013-04-03 07:24:00,
2013-04-03 03:29:00,39.8,21.2,30.21,NW,326,0.0,3.0,47,0.00,,,0.00,Wunderground v.1.15,2013-04-03 07:29:00,
2013-04-03 03:34:00,39.8,21.7,30.21,NW,326,0.0,1.0,48,0.00,,,0.00,Wunderground v.1.15,2013-04-03 07:34:00,
2013-04-03 03:39:00,39.8,22.2,30.21,NW,326,0.0,1.0,49,0.00,,,0.00,Wunderground v.1.15,2013-04-03 07:39:00,
2013-04-03 03:44:00,39.8,22.2,30.20,NW,326,1.0,3.0,49,0.00,,,0.00,Wunderground v.1.15,2013-04-03 07:44:00,
2013-04-03 03:49:00,39.8,21.2,30.20,NW,326,0.0,3.0,47,0.00,,,0.00,Wunderground v.1.15,2013-04-03 07:49:00,
2013-04-03 03:54:00,39.9,21.3,30.20,NW,326,0.0,0.0,47,0.00,,,0.00,Wunderground v.1.15,2013-04-03 07:54:00,
2013-04-03 03:59:00,39.9,21.3,30.20,NW,326,0.0,4.0,47,0.00,,,0.00,Wunderground v.1.15,2013-04-03 07:59:00,
2013-04-03 04:04:00,39.8,21.2,30.20,NW,326,0.0,2.0,47,0.00,,,0.00,Wunderground v.1.15,2013-04-03 08:04:00,
2013-04-03 04:09:00,39.6,21.5,30.20,NW,326,0.0,2.0,48,0.00,,,0.00,Wunderground v.1.15,2013-04-03 08:09:00,
2013-04-03 04:14:00,39.5,20.9,30.19,NNW,334,0.0,3.0,47,0.00,,,0.00,Wunderground v.1.15,2013-04-03 08:14:00,
2013-04-03 04:19:00,39.5,20.9,30.19,NNW,334,0.0,3.0,47,0.00,,,0.00,Wunderground v.1.15,2013-04-03 08:19:00,
2013-04-03 04:24:00,39.3,20.2,30.19,NNW,334,0.0,2.0,46,0.00,,,0.00,Wunderground v.1.15,2013-04-03 08:24:00,
2013-04-03 04:29:00,39.3,19.7,30.18,NNW,334,0.0,3.0,45,0.00,,,0.00,Wunderground v.1.15,2013-04-03 08:29:00,
2013-04-03 04:34:00,39.2,20.1,30.18,NNW,334,0.0,2.0,46,0.00,,,0.00,Wunderground v.1.15,2013-04-03 08:34:00,
2013-04-03 04:39:00,39.1,21.5,30.18,NNW,334,0.0,2.0,49,0.00,,,0.00,Wunderground v.1.15,2013-04-03 08:39:00,
2013-04-03 04:44:00,39.1,20.5,30.17,NNW,334,0.0,2.0,47,0.00,,,0.00,Wunderground v.1.15,2013-04-03 08:44:00,
2013-04-03 04:49:00,38.9,20.4,30.17,NNW,334,0.0,2.0,47,0.00,,,0.00,Wunderground v.1.15,2013-04-03 08:49:00,
2013-04-03 04:54:00,38.9,19.9,30.17,NNW,334,0.0,0.0,46,0.00,,,0.00,Wunderground v.1.15,2013-04-03 08:54:00,
2013-04-03 05:00:00,38.9,19.9,30.18,NNW,334,0.0,0.0,46,0.00,,,0.00,Wunderground v.1.15,2013-04-03 09:00:00,
2013-04-03 05:05:00,38.8,20.3,30.18,NNW,334,0.0,0.0,47,0.00,,,0.00,Wunderground v.1.15,2013-04-03 09:05:00,
2013-04-03 05:10:00,38.6,20.1,30.18,NNW,334,0.0,0.0,47,0.00,,,0.00,Wunderground v.1.15,2013-04-03 09:10:00,
2013-04-03 05:15:00,38.5,20.0,30.18,NNW,334,0.0,1.0,47,0.00,,,0.00,Wunderground v.1.15,2013-04-03 09:15:00,
2013-04-03 05:20:00,38.3,21.7,30.18,NNW,334,0.0,0.0,51,0.00,,,0.00,Wunderground v.1.15,2013-04-03 09:20:00,
2013-04-03 05:25:00,38.3,19.8,30.18,NNW,334,0.0,2.0,47,0.00,,,0.00,Wunderground v.1.15,2013-04-03 09:25:00,
2013-04-03 05:30:00,38.6,20.1,30.20,NNW,334,0.0,0.0,47,0.00,,,0.00,Wunderground v.1.15,2013-04-03 09:30:00,
2013-04-03 05:35:00,38.6,20.6,30.20,North,0,0.0,4.0,48,0.00,,,0.00,Wunderground v.1.15,2013-04-03 09:35:00,
2013-04-03 05:40:00,38.8,18.7,30.20,North,0,2.0,2.0,44,0.00,,,0.00,Wunderground v.1.15,2013-04-03 09:40:00,
2013-04-03 05:45:00,38.8,18.7,30.20,North,0,0.0,2.0,44,0.00,,,0.00,Wunderground v.1.15,2013-04-03 09:45:00,
2013-04-03 05:50:00,38.8,19.2,30.20,North,0,0.0,1.0,45,0.00,,,0.00,Wunderground v.1.15,2013-04-03 09:50:00,
2013-04-03 05:55:00,38.9,17.2,30.20,ENE,75,0.0,4.0,41,0.00,,,0.00,Wunderground v.1.15,2013-04-03 09:55:00,
2013-04-03 06:00:00,38.9,18.3,30.19,ENE,75,2.0,3.0,43,0.00,,,0.00,Wunderground v.1.15,2013-04-03 10:00:00,
2013-04-03 06:05:00,39.1,17.9,30.19,North,358,0.0,6.0,42,0.00,,,0.00,Wunderground v.1.15,2013-04-03 10:05:00,
2013-04-03 06:10:00,39.1,17.9,30.19,North,358,0.0,3.0,42,0.00,,,0.00,Wunderground v.1.15,2013-04-03 10:10:00,
2013-04-03 06:15:00,39.1,16.8,30.20,NNE,32,1.0,8.0,40,0.00,,,0.00,Wunderground v.1.15,2013-04-03 10:15:00,
2013-04-03 06:20:00,39.1,16.2,30.20,North,0,0.0,1.0,39,0.00,,,0.00,Wunderground v.1.15,2013-04-03 10:20:00,
2013-04-03 06:25:00,39.2,16.3,30.20,NNE,18,0.0,5.0,39,0.00,,,0.00,Wunderground v.1.15,2013-04-03 10:25:00,
2013-04-03 06:30:00,39.3,15.8,30.21,NNE,24,1.0,2.0,38,0.00,,,0.00,Wunderground v.1.15,2013-04-03 10:30:00,
2013-04-03 06:36:00,39.3,16.4,30.21,NE,34,5.0,5.0,39,0.00,,,0.00,Wunderground v.1.15,2013-04-03 10:36:00,
2013-04-03 06:41:00,39.3,16.4,30.21,NE,36,0.0,3.0,39,0.00,,,0.00,Wunderground v.1.15,2013-04-03 10:41:00,
2013-04-03 06:46:00,39.3,17.0,30.23,NE,36,0.0,3.0,40,0.00,,,0.00,Wunderground v.1.15,2013-04-03 10:46:00,
2013-04-03 06:52:00,39.3,15.2,30.23,North,358,0.0,4.0,37,0.00,,,0.00,Wunderground v.1.15,2013-04-03 10:52:00,
2013-04-03 06:57:00,39.5,16.0,30.23,NE,45,0.0,6.0,38,0.00,,,0.00,Wunderground v.1.15,2013-04-03 10:57:00,
2013-04-03 07:02:00,39.5,17.7,30.23,ENE,57,0.0,6.0,41,0.00,,,0.00,Wunderground v.1.15,2013-04-03 11:02:00,
2013-04-03 07:07:00,39.3,15.8,30.23,NNE,32,0.0,6.0,38,0.00,,,0.00,Wunderground v.1.15,2013-04-03 11:07:00,
2013-04-03 07:12:00,39.3,17.0,30.23,East,82,0.0,6.0,40,0.00,,,0.00,Wunderground v.1.15,2013-04-03 11:12:00,
2013-04-03 07:17:00,39.3,17.0,30.24,ENE,63,1.0,6.0,40,0.00,,,0.00,Wunderground v.1.15,2013-04-03 11:17:00,
2013-04-03 07:22:00,39.2,16.3,30.24,NE,56,1.0,3.0,39,0.00,,,0.00,Wunderground v.1.15,2013-04-03 11:22:00,
2013-04-03 07:27:00,39.2,15.7,30.24,East,84,0.0,5.0,38,0.00,,,0.00,Wunderground v.1.15,2013-04-03 11:27:00,
2013-04-03 07:32:00,39.3,15.2,30.24,NE,39,2.0,4.0,37,0.00,,,0.00,Wunderground v.1.15,2013-04-03 11:32:00,
2013-04-03 07:37:00,39.3,15.8,30.24,NE,42,1.0,5.0,38,0.00,,,0.00,Wunderground v.1.15,2013-04-03 11:37:00,
2013-04-03 07:42:00,39.5,16.0,30.24,ENE,60,0.0,5.0,38,0.00,,,0.00,Wunderground v.1.15,2013-04-03 11:42:00,
2013-04-03 07:47:00,39.3,16.4,30.25,NE,52,6.0,7.0,39,0.00,,,0.00,Wunderground v.1.15,2013-04-03 11:47:00,
2013-04-03 07:52:00,39.3,16.4,30.25,East,101,0.0,6.0,39,0.00,,,0.00,Wunderground v.1.15,2013-04-03 11:52:00,
2013-04-03 07:57:00,39.3,15.2,30.25,NNE,27,2.0,10.0,37,0.00,,,0.00,Wunderground v.1.15,2013-04-03 11:57:00,
2013-04-03 08:02:00,39.3,17.0,30.26,NNE,30,0.0,3.0,40,0.00,,,0.00,Wunderground v.1.15,2013-04-03 12:02:00,
2013-04-03 08:07:00,39.3,15.8,30.26,NE,39,0.0,7.0,38,0.00,,,0.00,Wunderground v.1.15,2013-04-03 12:07:00,
2013-04-03 08:12:00,39.3,15.8,30.26,NE,52,0.0,6.0,38,0.00,,,0.00,Wunderground v.1.15,2013-04-03 12:12:00,
2013-04-03 08:17:00,39.3,15.8,30.26,NE,55,1.0,6.0,38,0.00,,,0.00,Wunderground v.1.15,2013-04-03 12:17:00,
2013-04-03 08:22:00,39.3,16.4,30.26,NNE,32,0.0,4.0,39,0.00,,,0.00,Wunderground v.1.15,2013-04-03 12:22:00,
2013-04-03 08:27:00,39.5,16.6,30.26,NE,41,0.0,6.0,39,0.00,,,0.00,Wunderground v.1.15,2013-04-03 12:27:00,
2013-04-03 08:32:00,39.6,16.0,30.26,ENE,65,3.0,6.0,38,0.00,,,0.00,Wunderground v.1.15,2013-04-03 12:32:00,
2013-04-03 08:37:00,39.6,16.6,30.26,ENE,72,0.0,11.0,39,0.00,,,0.00,Wunderground v.1.15,2013-04-03 12:37:00,
2013-04-03 08:43:00,39.8,15.6,30.26,NE,40,3.0,7.0,37,0.00,,,0.00,Wunderground v.1.15,2013-04-03 12:43:00,
2013-04-03 08:48:00,40.1,15.9,30.26,East,84,0.0,7.0,37,0.00,,,0.00,Wunderground v.1.15,2013-04-03 12:48:00,
2013-04-03 08:53:00,40.8,18.3,30.26,East,89,5.0,10.0,40,0.00,,,0.00,Wunderground v.1.15,2013-04-03 12:53:00,
2013-04-03 08:58:00,41.5,17.7,30.25,ENE,60,5.0,10.0,38,0.00,,,0.00,Wunderground v.1.15,2013-04-03 12:58:00,
2013-04-03 09:03:00,42.1,17.7,30.25,NE,43,5.0,7.0,37,0.00,,,0.00,Wunderground v.1.15,2013-04-03 13:03:00,
2013-04-03 09:08:00,41.9,17.5,30.25,ENE,77,3.0,10.0,37,0.00,,,0.00,Wunderground v.1.15,2013-04-03 13:08:00,
2013-04-03 09:13:00,41.9,16.9,30.25,East,79,2.0,4.0,36,0.00,,,0.00,Wunderground v.1.15,2013-04-03 13:13:00,
2013-04-03 09:18:00,42.2,19.0,30.25,ENE,62,3.0,11.0,39,0.00,,,0.00,Wunderground v.1.15,2013-04-03 13:18:00,
2013-04-03 09:23:00,42.6,17.5,30.25,East,86,5.0,6.0,36,0.00,,,0.00,Wunderground v.1.15,2013-04-03 13:23:00,
2013-04-03 09:28:00,42.6,16.8,30.26,NNE,27,3.0,11.0,35,0.00,,,0.00,Wunderground v.1.15,2013-04-03 13:28:00,
2013-04-03 09:33:00,42.6,16.8,30.26,ENE,60,0.0,6.0,35,0.00,,,0.00,Wunderground v.1.15,2013-04-03 13:33:00,
2013-04-03 09:38:00,43.2,18.0,30.26,NE,38,1.0,6.0,36,0.00,,,0.00,Wunderground v.1.15,2013-04-03 13:38:00,
2013-04-03 09:43:00,43.2,16.7,30.25,ENE,64,2.0,9.0,34,0.00,,,0.00,Wunderground v.1.15,2013-04-03 13:43:00,
2013-04-03 09:48:00,43.2,17.4,30.25,ESE,105,4.0,10.0,35,0.00,,,0.00,Wunderground v.1.15,2013-04-03 13:48:00,
2013-04-03 09:53:00,43.6,18.4,30.25,East,86,4.0,9.0,36,0.00,,,0.00,Wunderground v.1.15,2013-04-03 13:53:00,
2013-04-03 09:58:00,43.8,17.9,30.25,East,84,4.0,12.0,35,0.00,,,0.00,Wunderground v.1.15,2013-04-03 13:58:00,
2013-04-03 10:03:00,44.1,18.2,30.25,NE,53,2.0,6.0,35,0.00,,,0.00,Wunderground v.1.15,2013-04-03 14:03:00,
2013-04-03 10:08:00,44.2,18.9,30.25,ENE,63,6.0,7.0,36,0.00,,,0.00,Wunderground v.1.15,2013-04-03 14:08:00,
2013-04-03 10:13:00,44.5,19.2,30.25,NNE,20,2.0,10.0,36,0.00,,,0.00,Wunderground v.1.15,2013-04-03 14:13:00,
2013-04-03 10:18:00,44.6,18.6,30.25,NE,46,5.0,10.0,35,0.00,,,0.00,Wunderground v.1.15,2013-04-03 14:18:00,
2013-04-03 10:23:00,44.9,18.9,30.25,NE,46,7.0,15.0,35,0.00,,,0.00,Wunderground v.1.15,2013-04-03 14:23:00,
2013-04-03 10:28:00,44.8,17.4,30.25,ENE,77,3.0,15.0,33,0.00,,,0.00,Wunderground v.1.15,2013-04-03 14:28:00,
2013-04-03 10:33:00,45.1,18.4,30.25,ENE,74,5.0,11.0,34,0.00,,,0.00,Wunderground v.1.15,2013-04-03 14:33:00,
2013-04-03 10:38:00,45.5,18.7,30.25,East,79,6.0,11.0,34,0.00,,,0.00,Wunderground v.1.15,2013-04-03 14:38:00,
2013-04-03 10:43:00,46.0,17.0,30.25,NE,46,6.0,14.0,31,0.00,,,0.00,Wunderground v.1.15,2013-04-03 14:43:00,
2013-04-03 10:48:00,46.2,19.3,30.25,NE,40,0.0,14.0,34,0.00,,,0.00,Wunderground v.1.15,2013-04-03 14:48:00,
2013-04-03 10:53:00,46.7,18.4,30.25,ENE,77,12.0,13.0,32,0.00,,,0.00,Wunderground v.1.15,2013-04-03 14:53:00,
2013-04-03 10:58:00,46.7,18.4,30.25,ENE,72,5.0,13.0,32,0.00,,,0.00,Wunderground v.1.15,2013-04-03 14:58:00,
2013-04-03 11:03:00,47.6,18.4,30.25,East,84,10.0,11.0,31,0.00,,,0.00,Wunderground v.1.15,2013-04-03 15:03:00,
2013-04-03 11:09:00,48.3,18.3,30.25,NE,56,3.0,12.0,30,0.00,,,0.00,Wunderground v.1.15,2013-04-03 15:09:00,
2013-04-03 11:14:00,48.3,18.3,30.25,ENE,74,6.0,13.0,30,0.00,,,0.00,Wunderground v.1.15,2013-04-03 15:14:00,
2013-04-03 11:19:00,48.5,19.2,30.25,East,79,4.0,13.0,31,0.00,,,0.00,Wunderground v.1.15,2013-04-03 15:19:00,
2013-04-03 11:24:00,48.9,20.3,30.25,East,93,10.0,10.0,32,0.00,,,0.00,Wunderground v.1.15,2013-04-03 15:24:00,
2013-04-03 11:29:00,48.8,18.7,30.26,East,91,6.0,12.0,30,0.00,,,0.00,Wunderground v.1.15,2013-04-03 15:29:00,
2013-04-03 11:34:00,49.2,21.3,30.26,East,96,8.0,13.0,33,0.00,,,0.00,Wunderground v.1.15,2013-04-03 15:34:00,
2013-04-03 11:39:00,49.1,19.7,30.26,East,91,7.0,13.0,31,0.00,,,0.00,Wunderground v.1.15,2013-04-03 15:39:00,
2013-04-03 11:44:00,49.6,19.4,30.26,East,86,5.0,12.0,30,0.00,,,0.00,Wunderground v.1.15,2013-04-03 15:44:00,
2013-04-03 11:49:00,50.2,19.9,30.26,NE,44,4.0,12.0,30,0.00,,,0.00,Wunderground v.1.15,2013-04-03 15:49:00,
2013-04-03 11:54:00,50.5,20.9,30.26,NE,45,6.0,6.0,31,0.00,,,0.00,Wunderground v.1.15,2013-04-03 15:54:00,
2013-04-03 11:59:00,50.7,21.9,30.26,NNE,18,3.0,7.0,32,0.00,,,0.00,Wunderground v.1.15,2013-04-03 15:59:00,
2013-04-03 12:04:00,50.8,22.7,30.26,ENE,62,0.0,10.0,33,0.00,,,0.00,Wunderground v.1.15,2013-04-03 16:04:00,
2013-04-03 12:10:00,51.1,20.7,30.26,East,91,10.0,10.0,30,0.00,,,0.00,Wunderground v.1.15,2013-04-03 16:10:00,
2013-04-03 12:15:00,50.1,19.0,30.25,East,84,6.0,14.0,29,0.00,,,0.00,Wunderground v.1.15,2013-04-03 16:15:00,
2013-04-03 12:20:00,50.7,24.0,30.25,ESE,106,10.0,14.0,35,0.00,,,0.00,Wunderground v.1.15,2013-04-03 16:20:00,
2013-04-03 12:25:00,50.4,22.3,30.25,East,89,6.0,11.0,33,0.00,,,0.00,Wunderground v.1.15,2013-04-03 16:25:00,
2013-04-03 12:30:00,50.7,19.6,30.26,ENE,78,10.0,10.0,29,0.00,,,0.00,Wunderground v.1.15,2013-04-03 16:30:00,
2013-04-03 12:35:00,50.8,20.4,30.26,East,84,0.0,16.0,30,0.00,,,0.00,Wunderground v.1.15,2013-04-03 16:35:00,
2013-04-03 12:40:00,51.1,20.7,30.26,ENE,72,0.0,5.0,30,0.00,,,0.00,Wunderground v.1.15,2013-04-03 16:40:00,
2013-04-03 12:45:00,51.1,20.7,30.25,East,82,1.0,10.0,30,0.00,,,0.00,Wunderground v.1.15,2013-04-03 16:45:00,
2013-04-03 12:50:00,51.4,19.3,30.25,East,81,0.0,5.0,28,0.00,,,0.00,Wunderground v.1.15,2013-04-03 16:50:00,
2013-04-03 12:55:00,51.4,19.3,30.25,NNE,27,0.0,10.0,28,0.00,,,0.00,Wunderground v.1.15,2013-04-03 16:55:00,
2013-04-03 13:00:00,51.4,20.2,30.24,NNE,15,0.0,3.0,29,0.00,,,0.00,Wunderground v.1.15,2013-04-03 17:00:00,
2013-04-03 13:05:00,51.4,22.5,30.24,East,82,0.0,7.0,32,0.00,,,0.00,Wunderground v.1.15,2013-04-03 17:05:00,
2013-04-03 13:10:00,51.6,18.7,30.24,East,95,5.0,9.0,27,0.00,,,0.00,Wunderground v.1.15,2013-04-03 17:10:00,
2013-04-03 13:15:00,51.4,19.3,30.24,SE,129,7.0,12.0,28,0.00,,,0.00,Wunderground v.1.15,2013-04-03 17:15:00,
2013-04-03 13:20:00,51.4,20.2,30.24,NE,51,2.0,5.0,29,0.00,,,0.00,Wunderground v.1.15,2013-04-03 17:20:00,
2013-04-03 13:25:00,51.3,18.4,30.24,East,93,5.0,12.0,27,0.00,,,0.00,Wunderground v.1.15,2013-04-03 17:25:00,
2013-04-03 13:30:00,50.8,18.0,30.24,East,86,7.0,9.0,27,0.00,,,0.00,Wunderground v.1.15,2013-04-03 17:30:00,
2013-04-03 13:35:00,51.0,21.4,30.24,East,85,4.0,11.0,31,0.00,,,0.00,Wunderground v.1.15,2013-04-03 17:35:00,
2013-04-03 13:40:00,51.6,20.3,30.24,ENE,61,5.0,13.0,29,0.00,,,0.00,Wunderground v.1.15,2013-04-03 17:40:00,
2013-04-03 13:45:00,51.4,18.5,30.23,East,83,0.0,13.0,27,0.00,,,0.00,Wunderground v.1.15,2013-04-03 17:45:00,
2013-04-03 13:50:00,51.3,20.1,30.23,East,94,4.0,6.0,29,0.00,,,0.00,Wunderground v.1.15,2013-04-03 17:50:00,
2013-04-03 13:56:00,51.6,21.1,30.23,East,94,6.0,8.0,30,0.00,,,0.00,Wunderground v.1.15,2013-04-03 17:56:00,
2013-04-03 14:01:00,51.4,20.2,30.23,East,85,6.0,7.0,29,0.00,,,0.00,Wunderground v.1.15,2013-04-03 18:01:00,
2013-04-03 14:05:00,51.9,22.2,30.23,East,89,6.0,11.0,31,0.00,,,0.00,Wunderground v.1.15,2013-04-03 18:05:00,
2013-04-03 14:11:00,51.7,20.4,30.23,ENE,77,0.0,4.0,29,0.00,,,0.00,Wunderground v.1.15,2013-04-03 18:11:00,
2013-04-03 14:16:00,51.9,21.4,30.23,East,98,1.0,11.0,30,0.00,,,0.00,Wunderground v.1.15,2013-04-03 18:16:00,
2013-04-03 14:21:00,52.0,22.3,30.23,East,98,3.0,4.0,31,0.00,,,0.00,Wunderground v.1.15,2013-04-03 18:21:00,
2013-04-03 14:26:00,52.3,21.7,30.23,East,91,0.0,4.0,30,0.00,,,0.00,Wunderground v.1.15,2013-04-03 18:26:00,
2013-04-03 14:31:00,52.0,19.9,30.24,East,94,5.0,9.0,28,0.00,,,0.00,Wunderground v.1.15,2013-04-03 18:31:00,
2013-04-03 14:36:00,52.0,20.7,30.24,ENE,76,4.0,9.0,29,0.00,,,0.00,Wunderground v.1.15,2013-04-03 18:36:00,
2013-04-03 14:41:00,52.2,19.2,30.24,East,101,0.0,4.0,27,0.00,,,0.00,Wunderground v.1.15,2013-04-03 18:41:00,
2013-04-03 14:46:00,52.3,19.3,30.25,East,93,6.0,7.0,27,0.00,,,0.00,Wunderground v.1.15,2013-04-03 18:46:00,
2013-04-03 14:51:00,52.5,20.3,30.25,East,93,0.0,1.0,28,0.00,,,0.00,Wunderground v.1.15,2013-04-03 18:51:00,
2013-04-03 14:57:00,52.5,20.3,30.25,East,94,0.0,9.0,28,0.00,,,0.00,Wunderground v.1.15,2013-04-03 18:57:00,
2013-04-03 15:02:00,52.6,19.5,30.24,East,89,0.0,8.0,27,0.00,,,0.00,Wunderground v.1.15,2013-04-03 19:02:00,
2013-04-03 15:07:00,52.5,21.1,30.24,East,87,0.0,8.0,29,0.00,,,0.00,Wunderground v.1.15,2013-04-03 19:07:00,
2013-04-03 15:12:00,52.3,20.1,30.24,East,84,0.0,2.0,28,0.00,,,0.00,Wunderground v.1.15,2013-04-03 19:12:00,
2013-04-03 15:17:00,52.5,21.9,30.24,ENE,72,3.0,3.0,30,0.00,,,0.00,Wunderground v.1.15,2013-04-03 19:17:00,
2013-04-03 15:22:00,52.8,21.4,30.24,East,97,1.0,7.0,29,0.00,,,0.00,Wunderground v.1.15,2013-04-03 19:22:00,
2013-04-03 15:27:00,52.9,20.6,30.24,East,97,0.0,7.0,28,0.00,,,0.00,Wunderground v.1.15,2013-04-03 19:27:00,
2013-04-03 15:32:00,52.9,22.3,30.24,East,97,1.0,2.0,30,0.00,,,0.00,Wunderground v.1.15,2013-04-03 19:32:00,
2013-04-03 15:37:00,52.9,20.6,30.24,East,90,5.0,7.0,28,0.00,,,0.00,Wunderground v.1.15,2013-04-03 19:37:00,
2013-04-03 15:42:00,52.9,20.6,30.24,ENE,72,0.0,3.0,28,0.00,,,0.00,Wunderground v.1.15,2013-04-03 19:42:00,
2013-04-03 15:47:00,53.1,20.8,30.23,ENE,60,0.0,5.0,28,0.00,,,0.00,Wunderground v.1.15,2013-04-03 19:47:00,
2013-04-03 15:52:00,53.2,20.9,30.23,ENE,60,0.0,1.0,28,0.00,,,0.00,Wunderground v.1.15,2013-04-03 19:52:00,
2013-04-03 15:57:00,53.3,21.0,30.23,ENE,64,0.0,4.0,28,0.00,,,0.00,Wunderground v.1.15,2013-04-03 19:57:00,
2013-04-03 16:02:00,53.2,20.9,30.23,NE,44,0.0,4.0,28,0.00,,,0.00,Wunderground v.1.15,2013-04-03 20:02:00,
2013-04-03 16:07:00,53.1,20.8,30.23,NE,56,0.0,4.0,28,0.00,,,0.00,Wunderground v.1.15,2013-04-03 20:07:00,
2013-04-03 16:12:00,53.1,20.8,30.23,WNW,302,0.0,5.0,28,0.00,,,0.00,Wunderground v.1.15,2013-04-03 20:12:00,
2013-04-03 16:17:00,52.9,19.8,30.23,North,358,0.0,5.0,27,0.00,,,0.00,Wunderground v.1.15,2013-04-03 20:17:00,
2013-04-03 16:22:00,52.9,21.5,30.23,NE,51,0.0,5.0,29,0.00,,,0.00,Wunderground v.1.15,2013-04-03 20:22:00,
2013-04-03 16:28:00,53.1,20.0,30.23,NE,36,0.0,6.0,27,0.00,,,0.00,Wunderground v.1.15,2013-04-03 20:28:00,
2013-04-03 16:33:00,52.9,20.6,30.23,NE,56,5.0,5.0,28,0.00,,,0.00,Wunderground v.1.15,2013-04-03 20:33:00,
2013-04-03 16:38:00,52.8,20.5,30.23,East,84,6.0,9.0,28,0.00,,,0.00,Wunderground v.1.15,2013-04-03 20:38:00,
2013-04-03 16:43:00,52.8,20.5,30.23,ENE,60,4.0,4.0,28,0.00,,,0.00,Wunderground v.1.15,2013-04-03 20:43:00,
2013-04-03 16:48:00,52.8,18.8,30.22,NNE,15,0.0,5.0,26,0.00,,,0.00,Wunderground v.1.15,2013-04-03 20:48:00,
2013-04-03 16:53:00,52.6,19.5,30.22,NNE,15,0.0,5.0,27,0.00,,,0.00,Wunderground v.1.15,2013-04-03 20:53:00,
2013-04-03 16:58:00,52.6,19.5,30.22,NNE,15,0.0,5.0,27,0.00,,,0.00,Wunderground v.1.15,2013-04-03 20:58:00,
2013-04-03 17:03:00,52.6,19.5,30.22,East,79,1.0,6.0,27,0.00,,,0.00,Wunderground v.1.15,2013-04-03 21:03:00,
2013-04-03 17:08:00,52.5,18.6,30.22,East,83,4.0,8.0,26,0.00,,,0.00,Wunderground v.1.15,2013-04-03 21:08:00,
2013-04-03 17:13:00,52.5,18.6,30.21,ENE,77,4.0,6.0,26,0.00,,,0.00,Wunderground v.1.15,2013-04-03 21:13:00,
2013-04-03 17:18:00,52.5,20.3,30.21,ENE,75,0.0,6.0,28,0.00,,,0.00,Wunderground v.1.15,2013-04-03 21:18:00,
2013-04-03 17:23:00,52.6,19.5,30.21,ENE,73,0.0,3.0,27,0.00,,,0.00,Wunderground v.1.15,2013-04-03 21:23:00,
2013-04-03 17:28:00,52.6,20.4,30.21,ENE,73,0.0,3.0,28,0.00,,,0.00,Wunderground v.1.15,2013-04-03 21:28:00,
2013-04-03 17:33:00,52.5,20.3,30.21,ENE,73,0.0,3.0,28,0.00,,,0.00,Wunderground v.1.15,2013-04-03 21:33:00,
2013-04-03 17:38:00,52.5,20.3,30.21,ENE,65,0.0,5.0,28,0.00,,,0.00,Wunderground v.1.15,2013-04-03 21:38:00,
2013-04-03 17:43:00,52.5,19.4,30.20,ENE,62,4.0,4.0,27,0.00,,,0.00,Wunderground v.1.15,2013-04-03 21:43:00,
2013-04-03 17:48:00,52.3,19.3,30.20,ENE,61,0.0,5.0,27,0.00,,,0.00,Wunderground v.1.15,2013-04-03 21:48:00,
2013-04-03 17:54:00,52.2,20.9,30.20,ESE,104,0.0,9.0,29,0.00,,,0.00,Wunderground v.1.15,2013-04-03 21:54:00,
2013-04-03 17:59:00,52.2,19.2,30.20,East,89,0.0,9.0,27,0.00,,,0.00,Wunderground v.1.15,2013-04-03 21:59:00,
2013-04-03 18:04:00,52.0,19.9,30.20,East,80,0.0,4.0,28,0.00,,,0.00,Wunderground v.1.15,2013-04-03 22:04:00,
2013-04-03 18:09:00,51.9,21.4,30.20,East,80,0.0,5.0,30,0.00,,,0.00,Wunderground v.1.15,2013-04-03 22:09:00,
2013-04-03 18:15:00,51.7,20.4,30.20,East,82,0.0,6.0,29,0.00,,,0.00,Wunderground v.1.15,2013-04-03 22:15:00,
2013-04-03 18:20:00,51.6,20.3,30.20,East,84,1.0,1.0,29,0.00,,,0.00,Wunderground v.1.15,2013-04-03 22:20:00,
2013-04-03 18:25:00,51.6,21.9,30.20,East,85,0.0,6.0,31,0.00,,,0.00,Wunderground v.1.15,2013-04-03 22:25:00,
2013-04-03 18:30:00,51.4,20.2,30.19,East,82,3.0,3.0,29,0.00,,,0.00,Wunderground v.1.15,2013-04-03 22:30:00,
2013-04-03 18:35:00,51.3,19.3,30.19,East,80,0.0,7.0,28,0.00,,,0.00,Wunderground v.1.15,2013-04-03 22:35:00,
2013-04-03 18:40:00,51.3,20.1,30.19,ENE,60,0.0,1.0,29,0.00,,,0.00,Wunderground v.1.15,2013-04-03 22:40:00,
2013-04-03 18:45:00,51.1,21.5,30.18,ENE,64,0.0,5.0,31,0.00,,,0.00,Wunderground v.1.15,2013-04-03 22:45:00,
2013-04-03 18:50:00,51.1,20.7,30.18,ENE,67,2.0,4.0,30,0.00,,,0.00,Wunderground v.1.15,2013-04-03 22:50:00,
2013-04-03 18:55:00,51.0,21.4,30.18,ENE,66,0.0,4.0,31,0.00,,,0.00,Wunderground v.1.15,2013-04-03 22:55:00,
2013-04-03 19:00:00,51.0,21.4,30.19,ENE,66,2.0,3.0,31,0.00,,,0.00,Wunderground v.1.15,2013-04-03 23:00:00,
2013-04-03 19:05:00,51.0,23.6,30.19,ENE,66,0.0,3.0,34,0.00,,,0.00,Wunderground v.1.15,2013-04-03 23:05:00,
2013-04-03 19:10:00,50.8,21.2,30.19,ENE,66,0.0,0.0,31,0.00,,,0.00,Wunderground v.1.15,2013-04-03 23:10:00,
2013-04-03 19:15:00,50.7,21.9,30.19,ENE,66,0.0,3.0,32,0.00,,,0.00,Wunderground v.1.15,2013-04-03 23:15:00,
2013-04-03 19:20:00,50.7,24.0,30.19,ENE,66,0.0,1.0,35,0.00,,,0.00,Wunderground v.1.15,2013-04-03 23:20:00,
2013-04-03 19:25:00,50.4,22.3,30.19,ENE,67,0.0,3.0,33,0.00,,,0.00,Wunderground v.1.15,2013-04-03 23:25:00,
2013-04-03 19:30:00,50.4,23.7,30.20,ENE,67,0.0,0.0,35,0.00,,,0.00,Wunderground v.1.15,2013-04-03 23:30:00,
2013-04-03 19:35:00,50.1,23.5,30.20,ENE,78,0.0,5.0,35,0.00,,,0.00,Wunderground v.1.15,2013-04-03 23:35:00,
2013-04-03 19:40:00,49.9,23.3,30.20,ENE,78,3.0,3.0,35,0.00,,,0.00,Wunderground v.1.15,2013-04-03 23:40:00,
2013-04-03 19:45:00,49.8,23.2,30.20,ENE,78,0.0,4.0,35,0.00,,,0.00,Wunderground v.1.15,2013-04-03 23:45:00,
2013-04-03 19:50:00,49.8,23.2,30.20,ENE,78,1.0,2.0,35,0.00,,,0.00,Wunderground v.1.15,2013-04-03 23:50:00,
2013-04-03 19:55:00,49.8,23.9,30.20,ENE,78,2.0,4.0,36,0.00,,,0.00,Wunderground v.1.15,2013-04-03 23:55:00,
2013-04-03 20:00:00,49.6,23.7,30.20,East,86,7.0,7.0,36,0.00,,,0.00,Wunderground v.1.15,2013-04-04 00:00:00,
2013-04-03 20:05:00,49.9,21.9,30.20,East,85,3.0,7.0,33,0.00,,,0.00,Wunderground v.1.15,2013-04-04 00:05:00,
2013-04-03 20:10:00,49.9,21.9,30.20,East,89,1.0,3.0,33,0.00,,,0.00,Wunderground v.1.15,2013-04-04 00:10:00,
2013-04-03 20:15:00,49.9,21.2,30.20,East,86,0.0,7.0,32,0.00,,,0.00,Wunderground v.1.15,2013-04-04 00:15:00,
2013-04-03 20:20:00,49.8,21.8,30.20,East,84,1.0,3.0,33,0.00,,,0.00,Wunderground v.1.15,2013-04-04 00:20:00,
2013-04-03 20:25:00,49.6,21.6,30.20,East,84,1.0,4.0,33,0.00,,,0.00,Wunderground v.1.15,2013-04-04 00:25:00,
2013-04-03 20:30:00,49.5,20.8,30.19,East,84,0.0,4.0,32,0.00,,,0.00,Wunderground v.1.15,2013-04-04 00:30:00,
2013-04-03 20:35:00,49.5,22.9,30.19,East,84,0.0,4.0,35,0.00,,,0.00,Wunderground v.1.15,2013-04-04 00:35:00,
2013-04-03 20:40:00,49.4,22.2,30.19,East,84,1.0,1.0,34,0.00,,,0.00,Wunderground v.1.15,2013-04-04 00:40:00,
2013-04-03 20:45:00,49.4,22.9,30.20,East,83,1.0,6.0,35,0.00,,,0.00,Wunderground v.1.15,2013-04-04 00:45:00,
2013-04-03 20:50:00,49.4,22.9,30.20,East,83,0.0,1.0,35,0.00,,,0.00,Wunderground v.1.15,2013-04-04 00:50:00,
2013-04-03 20:55:00,49.2,20.6,30.20,East,82,2.0,4.0,32,0.00,,,0.00,Wunderground v.1.15,2013-04-04 00:55:00,
2013-04-03 21:01:00,49.4,21.5,30.20,East,87,2.0,4.0,33,0.00,,,0.00,Wunderground v.1.15,2013-04-04 01:01:00,
2013-04-03 21:05:00,49.2,20.6,30.20,East,87,2.0,5.0,32,0.00,,,0.00,Wunderground v.1.15,2013-04-04 01:05:00,
2013-04-03 21:11:00,49.2,21.3,30.20,East,87,0.0,1.0,33,0.00,,,0.00,Wunderground v.1.15,2013-04-04 01:11:00,
2013-04-03 21:16:00,49.2,21.3,30.21,East,87,0.0,4.0,33,0.00,,,0.00,Wunderground v.1.15,2013-04-04 01:16:00,
2013-04-03 21:21:00,49.1,21.2,30.21,East,89,0.0,4.0,33,0.00,,,0.00,Wunderground v.1.15,2013-04-04 01:21:00,
2013-04-03 21:26:00,49.1,20.5,30.21,East,89,1.0,5.0,32,0.00,,,0.00,Wunderground v.1.15,2013-04-04 01:26:00,
2013-04-03 21:31:00,49.2,20.6,30.20,East,82,0.0,3.0,32,0.00,,,0.00,Wunderground v.1.15,2013-04-04 01:31:00,
2013-04-03 21:36:00,49.1,21.2,30.20,East,84,0.0,3.0,33,0.00,,,0.00,Wunderground v.1.15,2013-04-04 01:36:00,
2013-04-03 21:41:00,49.1,21.2,30.20,East,84,0.0,3.0,33,0.00,,,0.00,Wunderground v.1.15,2013-04-04 01:41:00,
2013-04-03 21:46:00,48.9,23.1,30.20,East,84,2.0,3.0,36,0.00,,,0.00,Wunderground v.1.15,2013-04-04 01:46:00,
2013-04-03 21:51:00,48.8,21.6,30.20,East,84,3.0,4.0,34,0.00,,,0.00,Wunderground v.1.15,2013-04-04 01:51:00,
2013-04-03 21:56:00,48.8,19.5,30.20,East,85,1.0,10.0,31,0.00,,,0.00,Wunderground v.1.15,2013-04-04 01:56:00,
2013-04-03 22:01:00,48.9,20.3,30.19,East,84,3.0,6.0,32,0.00,,,0.00,Wunderground v.1.15,2013-04-04 02:01:00,
2013-04-03 22:06:00,48.9,19.5,30.19,East,80,0.0,6.0,31,0.00,,,0.00,Wunderground v.1.15,2013-04-04 02:06:00,
2013-04-03 22:11:00,48.9,20.3,30.19,East,82,0.0,4.0,32,0.00,,,0.00,Wunderground v.1.15,2013-04-04 02:11:00,
2013-04-03 22:17:00,48.9,20.3,30.19,ENE,77,5.0,5.0,32,0.00,,,0.00,Wunderground v.1.15,2013-04-04 02:17:00,
2013-04-03 22:22:00,48.9,21.0,30.19,East,79,2.0,5.0,33,0.00,,,0.00,Wunderground v.1.15,2013-04-04 02:22:00,
2013-04-03 22:27:00,48.8,20.9,30.19,East,79,1.0,5.0,33,0.00,,,0.00,Wunderground v.1.15,2013-04-04 02:27:00,
2013-04-03 22:32:00,48.8,19.5,30.19,East,82,1.0,7.0,31,0.00,,,0.00,Wunderground v.1.15,2013-04-04 02:32:00,
2013-04-03 22:37:00,48.6,20.0,30.19,East,84,6.0,7.0,32,0.00,,,0.00,Wunderground v.1.15,2013-04-04 02:37:00,
2013-04-03 22:42:00,48.8,20.2,30.19,East,84,0.0,4.0,32,0.00,,,0.00,Wunderground v.1.15,2013-04-04 02:42:00,
2013-04-03 22:47:00,48.6,20.0,30.18,East,84,3.0,4.0,32,0.00,,,0.00,Wunderground v.1.15,2013-04-04 02:47:00,
2013-04-03 22:52:00,48.5,19.2,30.18,East,91,2.0,5.0,31,0.00,,,0.00,Wunderground v.1.15,2013-04-04 02:52:00,
2013-04-03 22:57:00,48.5,21.4,30.18,East,89,3.0,5.0,34,0.00,,,0.00,Wunderground v.1.15,2013-04-04 02:57:00,
2013-04-03 23:02:00,48.5,19.2,30.18,East,90,1.0,4.0,31,0.00,,,0.00,Wunderground v.1.15,2013-04-04 03:02:00,
2013-04-03 23:07:00,48.3,19.8,30.18,East,90,2.0,5.0,32,0.00,,,0.00,Wunderground v.1.15,2013-04-04 03:07:00,
2013-04-03 23:12:00,48.3,21.2,30.18,East,90,1.0,5.0,34,0.00,,,0.00,Wunderground v.1.15,2013-04-04 03:12:00,
2013-04-03 23:17:00,48.5,19.9,30.19,East,89,0.0,5.0,32,0.00,,,0.00,Wunderground v.1.15,2013-04-04 03:17:00,
2013-04-03 23:22:00,48.3,21.2,30.19,East,83,4.0,5.0,34,0.00,,,0.00,Wunderground v.1.15,2013-04-04 03:22:00,
2013-04-03 23:27:00,48.3,20.5,30.19,East,84,2.0,6.0,33,0.00,,,0.00,Wunderground v.1.15,2013-04-04 03:27:00,
2013-04-03 23:32:00,48.3,21.2,30.18,East,84,0.0,4.0,34,0.00,,,0.00,Wunderground v.1.15,2013-04-04 03:32:00,
2013-04-03 23:37:00,48.3,20.5,30.18,East,87,1.0,4.0,33,0.00,,,0.00,Wunderground v.1.15,2013-04-04 03:37:00,
2013-04-03 23:42:00,48.2,21.1,30.18,East,101,0.0,6.0,34,0.00,,,0.00,Wunderground v.1.15,2013-04-04 03:42:00,
2013-04-03 23:48:00,48.2,21.1,30.17,East,101,2.0,6.0,34,0.00,,,0.00,Wunderground v.1.15,2013-04-04 03:48:00,
2013-04-03 23:53:00,48.0,20.9,30.17,East,100,0.0,5.0,34,0.00,,,0.00,Wunderground v.1.15,2013-04-04 03:53:00,
2013-04-03 23:58:00,48.0,20.2,30.17,East,98,2.0,5.0,33,0.00,,,0.00,Wunderground v.1.15,2013-04-04 03:58:00,